Time;durP1;ratioP1;P1;durP2;ratioP2;P2;SDS_P1;SDS_P2;PMS_P1;PMS_P2;Temp;Humidity;BMP_temperature;BMP_pressure;BME280_temperature;BME280_humidity;BME280_pressure;Samples;Min_cycle;Max_cycle;Signal;HPM_P1;HPM_P2
2022/01/23 00:01:55;;;;;;;9.20;6.97;;;;;;;;;;5032013;28;20030;-67
2022/01/23 00:04:20;;;;;;;8.40;6.95;;;;;;;;;;5024683;28;20497;-67
2022/01/23 00:06:46;;;;;;;9.35;7.55;;;;;;;;;;5032035;28;20033;-67
2022/01/23 00:09:14;;;;;;;8.20;6.70;;;;;;;;;;5031089;28;20033;-64
2022/01/23 00:11:46;;;;;;;8.23;7.07;;;;;;;;;;5020617;28;20404;-66
2022/01/23 00:17:20;;;;;;;8.15;6.68;;;;;;;;;;5032814;28;20044;-65
2022/01/23 00:19:46;;;;;;;8.93;6.82;;;;;;;;;;5032023;28;20096;-65
2022/01/23 00:22:12;;;;;;;9.90;7.57;;;;;;;;;;5030954;28;20103;-65
2022/01/23 00:32:49;;;;;;;9.65;7.55;;;;;;;;;;5045603;28;20036;-65
2022/01/23 00:35:14;;;;;;;7.57;6.70;;;;;;;;;;5031553;28;20033;-64
2022/01/23 00:37:39;;;;;;;9.30;7.47;;;;;;;;;;5031170;28;20031;-64
2022/01/23 00:40:05;;;;;;;6.18;5.13;;;;;;;;;;5031037;28;20496;-64
2022/01/23 00:42:30;;;;;;;8.02;6.00;;;;;;;;;;5024988;28;20500;-64
2022/01/23 00:45:07;;;;;;;6.78;5.38;;;;;;;;;;5019238;28;20027;-64
2022/01/23 00:47:33;;;;;;;4.43;3.40;;;;;;;;;;5022385;28;20026;-64
2022/01/23 00:49:58;;;;;;;5.68;3.88;;;;;;;;;;5043506;28;20091;-64
2022/01/23 00:52:24;;;;;;;3.55;2.92;;;;;;;;;;5027410;28;20489;-64
2022/01/23 00:54:50;;;;;;;3.33;3.03;;;;;;;;;;5029535;28;20600;-66
2022/01/23 00:57:15;;;;;;;1.65;1.55;;;;;;;;;;5040237;28;20551;-64
2022/01/23 00:59:40;;;;;;;3.63;2.28;;;;;;;;;;5029251;28;20108;-64
2022/01/23 01:02:05;;;;;;;2.97;2.63;;;;;;;;;;5034308;28;20018;-64
2022/01/23 01:04:31;;;;;;;3.28;2.28;;;;;;;;;;5041169;28;20028;-64
2022/01/23 01:06:56;;;;;;;2.70;2.38;;;;;;;;;;5038719;28;20045;-64
2022/01/23 01:09:21;;;;;;;2.20;2.00;;;;;;;;;;5035998;28;20025;-64
2022/01/23 01:12:03;;;;;;;2.58;2.38;;;;;;;;;;5032913;28;20047;-64
2022/01/23 01:35:42;;;;;;;4.43;3.67;;;;;;;;;;5031733;28;20056;-64
2022/01/23 01:38:07;;;;;;;3.55;3.33;;;;;;;;;;5029806;28;20034;-65
2022/01/23 01:40:33;;;;;;;3.35;3.05;;;;;;;;;;5030725;28;20032;-64
2022/01/23 01:42:58;;;;;;;3.45;3.10;;;;;;;;;;5022899;28;20029;-64
2022/01/23 01:45:26;;;;;;;3.42;3.13;;;;;;;;;;5039444;28;20486;-64
2022/01/23 01:47:52;;;;;;;4.70;4.20;;;;;;;;;;5030898;28;20034;-64
2022/01/23 01:50:17;;;;;;;4.53;4.13;;;;;;;;;;5052085;28;20173;-64
2022/01/23 01:52:43;;;;;;;5.63;4.93;;;;;;;;;;5042679;28;20386;-64
2022/01/23 01:55:11;;;;;;;7.53;5.18;;;;;;;;;;5041271;28;20030;-67
2022/01/23 01:57:43;;;;;;;6.35;5.53;;;;;;;;;;5036261;28;20073;-64
2022/01/23 02:08:28;;;;;;;6.90;6.10;;;;;;;;;;5043694;28;20118;-65
2022/01/23 02:10:58;;;;;;;5.10;4.68;;;;;;;;;;5026291;28;20499;-65
2022/01/23 02:13:38;;;;;;;7.15;6.15;;;;;;;;;;5022605;28;20520;-65
2022/01/23 02:24:59;;;;;;;6.38;5.75;;;;;;;;;;4991841;28;20073;-65
2022/01/23 02:52:42;;;;;;;6.22;5.63;;;;;;;;;;4988871;28;20514;-65
2022/01/23 02:57:09;;;;;;;5.95;5.35;;;;;;;;;;5044183;28;20095;-65
2022/01/23 02:59:37;;;;;;;6.57;5.88;;;;;;;;;;5033464;28;20025;-65
2022/01/23 03:04:28;;;;;;;8.50;6.15;;;;;;;;;;5034578;28;20096;-64
2022/01/23 03:07:10;;;;;;;7.40;6.70;;;;;;;;;;5032177;28;20022;-64
2022/01/23 03:12:26;;;;;;;6.55;5.80;;;;;;;;;;5031270;28;20496;-64
2022/01/23 03:14:59;;;;;;;7.82;6.68;;;;;;;;;;5026654;28;20026;-65
2022/01/23 03:33:25;;;;;;;8.25;6.93;;;;;;;;;;5032481;28;20036;-65
2022/01/23 03:35:51;;;;;;;8.07;6.90;;;;;;;;;;5031487;28;20022;-66
2022/01/23 03:38:16;;;;;;;9.02;7.05;;;;;;;;;;5036697;28;20025;-65
2022/01/23 03:40:41;;;;;;;9.32;6.82;;;;;;;;;;5032418;28;20017;-66
2022/01/23 03:43:12;;;;;;;6.88;4.78;;;;;;;;;;5023719;28;20014;-65
2022/01/23 03:50:37;;;;;;;2.78;2.53;;;;;;;;;;5032446;28;20025;-64
2022/01/23 03:53:03;;;;;;;4.35;3.45;;;;;;;;;;5035167;28;20446;-64
2022/01/23 03:55:28;;;;;;;3.55;2.95;;;;;;;;;;5031287;28;20519;-64
2022/01/23 03:57:53;;;;;;;2.97;2.28;;;;;;;;;;5011258;28;20085;-65
2022/01/23 04:00:18;;;;;;;2.75;2.50;;;;;;;;;;5020838;28;20417;-65
2022/01/23 04:02:44;;;;;;;4.25;3.03;;;;;;;;;;5031120;28;20497;-65
2022/01/23 04:05:10;;;;;;;4.07;3.40;;;;;;;;;;5031304;28;20079;-65
2022/01/23 04:07:36;;;;;;;3.53;3.22;;;;;;;;;;5031980;28;20053;-64
2022/01/23 04:10:02;;;;;;;3.67;3.17;;;;;;;;;;5032352;28;20033;-64
2022/01/23 04:12:47;;;;;;;4.00;3.65;;;;;;;;;;5028562;28;20035;-64
2022/01/23 04:34:18;;;;;;;8.02;6.07;;;;;;;;;;5030963;28;20278;-65
2022/01/23 05:06:47;;;;;;;4.03;3.42;;;;;;;;;;5029928;28;20029;-65
2022/01/23 05:09:13;;;;;;;5.22;3.75;;;;;;;;;;5028726;28;20544;-65
2022/01/23 05:11:44;;;;;;;4.63;4.07;;;;;;;;;;5029059;28;20633;-65
2022/01/23 05:14:10;;;;;;;4.72;3.78;;;;;;;;;;5025095;28;20049;-65
2022/01/23 05:16:35;;;;;;;6.05;4.57;;;;;;;;;;5031534;28;20442;-66
2022/01/23 05:19:01;;;;;;;4.90;4.40;;;;;;;;;;5031772;28;20023;-65
2022/01/23 05:21:57;;;;;;;6.45;4.53;;;;;;;;;;5034852;28;20473;-65
2022/01/23 05:24:27;;;;;;;5.75;5.13;;;;;;;;;;5033671;28;20404;-65
2022/01/23 05:27:02;;;;;;;6.45;4.65;;;;;;;;;;5037023;28;20056;-65
2022/01/23 05:29:27;;;;;;;6.25;5.00;;;;;;;;;;5037006;28;20018;-64
2022/01/23 05:31:53;;;;;;;5.93;4.75;;;;;;;;;;5050262;28;20087;-64
2022/01/23 05:34:20;;;;;;;10.18;6.47;;;;;;;;;;5027449;28;20468;-66
2022/01/23 05:36:46;;;;;;;6.90;5.55;;;;;;;;;;5049164;28;20033;-66
2022/01/23 05:39:11;;;;;;;8.18;6.25;;;;;;;;;;5032188;28;20083;-64
2022/01/23 05:41:36;;;;;;;9.77;7.30;;;;;;;;;;5032931;28;20060;-65
2022/01/23 05:44:02;;;;;;;10.40;7.22;;;;;;;;;;5025340;28;20040;-64
2022/01/23 05:46:27;;;;;;;9.63;7.50;;;;;;;;;;5028277;28;20100;-65
2022/01/23 05:48:52;;;;;;;8.07;5.68;;;;;;;;;;5047268;28;20116;-64
2022/01/23 05:51:18;;;;;;;8.18;5.75;;;;;;;;;;5028524;28;20624;-64
2022/01/23 05:53:43;;;;;;;7.90;6.45;;;;;;;;;;5040099;28;20770;-65
2022/01/23 05:56:08;;;;;;;7.97;6.00;;;;;;;;;;5033349;28;20418;-64
2022/01/23 05:58:33;;;;;;;7.03;5.43;;;;;;;;;;5036796;28;20108;-64
2022/01/23 06:00:59;;;;;;;8.30;5.57;;;;;;;;;;5032961;28;20028;-64
2022/01/23 06:03:24;;;;;;;7.53;6.07;;;;;;;;;;5037264;28;20477;-64
2022/01/23 06:05:49;;;;;;;8.23;6.88;;;;;;;;;;5034390;28;20060;-63
2022/01/23 06:08:14;;;;;;;6.68;5.38;;;;;;;;;;5046454;28;20028;-65
2022/01/23 06:10:54;;;;;;;9.23;6.32;;;;;;;;;;5032054;28;20448;-65
2022/01/23 06:13:20;;;;;;;6.63;4.55;;;;;;;;;;5021846;28;20097;-65
2022/01/23 06:15:45;;;;;;;6.60;4.80;;;;;;;;;;5025433;28;20115;-65
2022/01/23 06:18:10;;;;;;;6.13;5.25;;;;;;;;;;5034415;28;20014;-65
2022/01/23 06:20:35;;;;;;;5.80;4.68;;;;;;;;;;5033929;28;20470;-65
2022/01/23 06:23:01;;;;;;;5.85;4.68;;;;;;;;;;5029642;28;20013;-64
2022/01/23 06:25:32;;;;;;;7.38;5.40;;;;;;;;;;5031774;28;20493;-65
2022/01/23 06:27:58;;;;;;;7.60;6.47;;;;;;;;;;5033773;28;20120;-64
2022/01/23 06:30:23;;;;;;;8.30;6.45;;;;;;;;;;5032116;28;20501;-64
2022/01/23 06:32:48;;;;;;;9.20;7.20;;;;;;;;;;5032491;28;20025;-64
2022/01/23 06:35:14;;;;;;;9.02;6.82;;;;;;;;;;5032307;28;20021;-64
2022/01/23 06:37:39;;;;;;;8.05;6.57;;;;;;;;;;5034963;28;20087;-64
2022/01/23 06:40:04;;;;;;;6.93;5.45;;;;;;;;;;5040910;28;20018;-64
2022/01/23 06:42:29;;;;;;;6.65;5.95;;;;;;;;;;5026575;28;20137;-64
2022/01/23 06:44:56;;;;;;;6.60;5.78;;;;;;;;;;5027528;28;20048;-65
2022/01/23 06:47:22;;;;;;;7.38;6.28;;;;;;;;;;5030836;28;20022;-64
2022/01/23 06:49:47;;;;;;;7.15;5.07;;;;;;;;;;5035585;28;20493;-64
2022/01/23 06:52:12;;;;;;;5.78;5.03;;;;;;;;;;5032009;28;20048;-64
2022/01/23 06:54:37;;;;;;;6.45;5.40;;;;;;;;;;5039961;28;20238;-64
2022/01/23 06:57:03;;;;;;;8.35;5.72;;;;;;;;;;5028582;28;20041;-64
2022/01/23 06:59:28;;;;;;;6.68;4.72;;;;;;;;;;5024223;28;20044;-65
2022/01/23 07:01:53;;;;;;;7.38;5.65;;;;;;;;;;5022030;28;20022;-65
2022/01/23 07:04:18;;;;;;;7.20;5.72;;;;;;;;;;5022083;28;20036;-65
2022/01/23 07:06:44;;;;;;;5.55;4.47;;;;;;;;;;5019444;28;20056;-65
2022/01/23 07:09:09;;;;;;;5.13;4.63;;;;;;;;;;5019924;28;20065;-65
2022/01/23 07:11:34;;;;;;;5.72;5.05;;;;;;;;;;5019935;28;20026;-65
2022/01/23 07:13:59;;;;;;;7.03;5.68;;;;;;;;;;5004840;28;20090;-65
2022/01/23 07:16:25;;;;;;;7.55;6.07;;;;;;;;;;5024094;28;20140;-65
2022/01/23 07:18:50;;;;;;;7.68;5.82;;;;;;;;;;5045356;28;20053;-65
2022/01/23 07:21:15;;;;;;;7.22;6.45;;;;;;;;;;5027907;28;20430;-64
2022/01/23 07:23:49;;;;;;;7.97;6.22;;;;;;;;;;5011414;28;20618;-64
2022/01/23 07:26:14;;;;;;;7.97;6.40;;;;;;;;;;5029544;28;20035;-64
2022/01/23 07:28:41;;;;;;;8.32;7.03;;;;;;;;;;5029909;28;20030;-63
2022/01/23 07:31:09;;;;;;;8.23;6.55;;;;;;;;;;5028464;28;20029;-64
2022/01/23 07:33:36;;;;;;;9.10;6.70;;;;;;;;;;5029503;28;20029;-64
2022/01/23 07:36:02;;;;;;;10.32;7.57;;;;;;;;;;5026985;28;20461;-64
2022/01/23 07:38:27;;;;;;;8.75;7.07;;;;;;;;;;5028883;28;20025;-64
2022/01/23 07:40:52;;;;;;;8.57;6.78;;;;;;;;;;5022743;28;20033;-65
2022/01/23 07:43:17;;;;;;;8.32;6.80;;;;;;;;;;5022766;28;20116;-65
2022/01/23 07:45:43;;;;;;;9.35;7.60;;;;;;;;;;5018634;28;20029;-65
2022/01/23 07:48:09;;;;;;;10.93;8.38;;;;;;;;;;5006686;28;20029;-66
2022/01/23 07:50:34;;;;;;;10.07;7.40;;;;;;;;;;5025711;28;21298;-65
2022/01/23 07:53:00;;;;;;;8.73;7.32;;;;;;;;;;5026140;28;20088;-65
2022/01/23 07:55:25;;;;;;;8.90;6.60;;;;;;;;;;5029952;28;20068;-65
2022/01/23 07:57:52;;;;;;;8.27;7.40;;;;;;;;;;5029105;28;20026;-65
2022/01/23 08:00:18;;;;;;;11.07;8.05;;;;;;;;;;5025616;28;20486;-65
2022/01/23 08:02:43;;;;;;;11.45;8.85;;;;;;;;;;5032144;28;20025;-64
2022/01/23 08:05:10;;;;;;;12.00;8.80;;;;;;;;;;5029481;28;20116;-65
2022/01/23 08:07:36;;;;;;;10.10;8.48;;;;;;;;;;5027426;28;20644;-66
2022/01/23 08:10:03;;;;;;;10.02;7.30;;;;;;;;;;5024376;28;20116;-65
2022/01/23 08:12:29;;;;;;;10.52;8.27;;;;;;;;;;5020578;28;20113;-65
2022/01/23 08:14:55;;;;;;;10.50;7.03;;;;;;;;;;5022305;28;20025;-65
2022/01/23 08:17:24;;;;;;;8.38;6.75;;;;;;;;;;5030507;28;20121;-65
2022/01/23 08:19:49;;;;;;;10.52;8.23;;;;;;;;;;5026344;28;20032;-65
2022/01/23 08:22:15;;;;;;;8.25;7.18;;;;;;;;;;5029010;28;20014;-65
2022/01/23 08:24:40;;;;;;;10.15;7.22;;;;;;;;;;5029175;28;20025;-65
2022/01/23 08:27:05;;;;;;;8.18;5.20;;;;;;;;;;5020828;28;20021;-64
2022/01/23 08:29:30;;;;;;;6.32;5.55;;;;;;;;;;5023856;28;20037;-65
2022/01/23 08:31:56;;;;;;;8.18;6.07;;;;;;;;;;5027809;28;20160;-65
2022/01/23 08:34:21;;;;;;;7.43;5.50;;;;;;;;;;5029462;28;20028;-64
2022/01/23 08:36:46;;;;;;;7.95;6.35;;;;;;;;;;5017749;28;20116;-65
2022/01/23 08:39:12;;;;;;;8.90;6.70;;;;;;;;;;5029166;28;20034;-65
2022/01/23 08:41:49;;;;;;;9.18;6.45;;;;;;;;;;5022051;28;20022;-65
2022/01/23 08:44:25;;;;;;;7.75;6.15;;;;;;;;;;5024099;28;20061;-65
2022/01/23 08:46:51;;;;;;;7.10;5.63;;;;;;;;;;5017522;28;20627;-66
2022/01/23 08:49:17;;;;;;;7.20;5.30;;;;;;;;;;5030737;28;20029;-65
2022/01/23 08:51:43;;;;;;;6.55;5.47;;;;;;;;;;5029757;28;20025;-66
2022/01/23 08:54:09;;;;;;;8.10;5.70;;;;;;;;;;5031280;28;20402;-65
2022/01/23 08:56:34;;;;;;;6.95;5.38;;;;;;;;;;5015716;28;20046;-65
2022/01/23 08:58:59;;;;;;;6.25;5.57;;;;;;;;;;5029144;28;20477;-65
2022/01/23 09:01:25;;;;;;;5.85;3.72;;;;;;;;;;5029705;28;20163;-65
2022/01/23 09:03:50;;;;;;;5.35;4.55;;;;;;;;;;5028219;28;20117;-65
2022/01/23 09:06:15;;;;;;;4.22;3.83;;;;;;;;;;5024069;28;20671;-66
2022/01/23 09:08:41;;;;;;;4.88;4.07;;;;;;;;;;5025528;28;20029;-65
2022/01/23 09:11:10;;;;;;;5.18;4.55;;;;;;;;;;5023938;28;20147;-65
2022/01/23 09:16:04;;;;;;;5.03;4.45;;;;;;;;;;5025222;28;20033;-65
2022/01/23 09:18:29;;;;;;;3.97;3.17;;;;;;;;;;5005617;28;20037;-65
2022/01/23 09:20:54;;;;;;;5.82;4.10;;;;;;;;;;5025766;28;20044;-65
2022/01/23 09:23:19;;;;;;;7.15;5.15;;;;;;;;;;5027099;28;20026;-66
2022/01/23 09:25:45;;;;;;;3.30;2.92;;;;;;;;;;5026785;28;20037;-65
2022/01/23 09:28:13;;;;;;;4.00;3.70;;;;;;;;;;5033504;28;20469;-64
2022/01/23 09:30:40;;;;;;;4.28;3.53;;;;;;;;;;5033238;28;20025;-64
2022/01/23 09:33:05;;;;;;;3.45;3.15;;;;;;;;;;5034294;28;20024;-64
2022/01/23 09:35:31;;;;;;;4.15;3.28;;;;;;;;;;5032902;28;20029;-64
2022/01/23 09:37:56;;;;;;;4.88;4.20;;;;;;;;;;5034396;28;20035;-64
2022/01/23 09:40:21;;;;;;;5.43;3.95;;;;;;;;;;5016176;28;20033;-64
2022/01/23 09:42:51;;;;;;;5.15;4.65;;;;;;;;;;5015044;28;20063;-64
2022/01/23 09:45:17;;;;;;;5.60;4.82;;;;;;;;;;5021487;28;20026;-64
2022/01/23 09:47:43;;;;;;;4.35;3.60;;;;;;;;;;5023457;28;20053;-64
2022/01/23 09:50:09;;;;;;;5.32;4.82;;;;;;;;;;5035142;28;20453;-64
2022/01/23 09:52:35;;;;;;;5.13;4.63;;;;;;;;;;5035344;28;20033;-64
2022/01/23 10:17:11;;;;;;;5.10;3.53;;;;;;;;;;3830337;28;20054;-79
2022/01/23 10:19:37;;;;;;;4.20;3.80;;;;;;;;;;5795517;23;20028;-85
2022/01/23 10:22:14;;;;;;;4.85;4.25;;;;;;;;;;4960442;28;20101;-87
2022/01/23 10:24:46;;;;;;;4.10;3.70;;;;;;;;;;4974578;28;20023;-89
2022/01/23 10:27:11;;;;;;;4.72;3.75;;;;;;;;;;4955309;28;20039;-85
2022/01/23 10:29:43;;;;;;;3.40;3.10;;;;;;;;;;4975369;28;20023;-90
2022/01/23 10:32:21;;;;;;;3.47;3.17;;;;;;;;;;4975779;28;20019;-88
2022/01/23 10:34:46;;;;;;;4.22;3.58;;;;;;;;;;4959345;28;20031;-90
2022/01/23 10:37:12;;;;;;;3.83;3.50;;;;;;;;;;4975570;28;20499;-90
2022/01/23 10:39:55;;;;;;;3.30;3.00;;;;;;;;;;4975188;28;20026;-91
2022/01/23 10:54:34;;;;;;;2.53;2.33;;;;;;;;;;4861350;29;20025;-90
2022/01/23 10:57:01;;;;;;;2.67;2.47;;;;;;;;;;4860615;29;20037;-89
2022/01/23 11:02:47;;;;;;;3.58;3.28;;;;;;;;;;4806572;29;20034;-92
2022/01/23 11:05:14;;;;;;;2.97;2.67;;;;;;;;;;4791363;29;20485;-91
2022/01/23 11:07:40;;;;;;;3.03;2.83;;;;;;;;;;4800034;29;20023;-91
2022/01/23 11:10:07;;;;;;;3.22;2.92;;;;;;;;;;4791263;29;20060;-93
2022/01/23 11:18:34;;;;;;;3.25;2.95;;;;;;;;;;4806013;29;20034;-89
2022/01/23 11:21:11;;;;;;;2.03;1.75;;;;;;;;;;4799981;29;20597;-87
2022/01/23 11:23:37;;;;;;;3.28;2.97;;;;;;;;;;4772340;30;20031;-91
2022/01/23 11:26:08;;;;;;;3.33;2.97;;;;;;;;;;4855153;29;20089;-89
2022/01/23 11:28:50;;;;;;;;;;;;;;;;;;;;;
2022/01/23 11:31:30;;;;;;;3.65;3.10;;;;;;;;;;4886994;29;20033;-86
2022/01/23 11:34:16;;;;;;;3.70;3.15;;;;;;;;;;4895498;29;20119;-88
2022/01/23 11:37:07;;;;;;;3.05;2.63;;;;;;;;;;4896503;29;20068;-87
2022/01/23 11:59:39;;;;;;;3.03;2.38;;;;;;;;;;4981712;28;20035;-87
2022/01/23 12:02:14;;;;;;;2.90;2.63;;;;;;;;;;4973444;28;20031;-87
2022/01/23 12:04:43;;;;;;;2.70;2.50;;;;;;;;;;4972582;28;20034;-87
2022/01/23 12:07:19;;;;;;;2.53;2.22;;;;;;;;;;4972181;28;20055;-87
2022/01/23 12:10:24;;;;;;;3.63;2.58;;;;;;;;;;4972575;28;20477;-86
2022/01/23 12:13:13;;;;;;;6.60;4.07;;;;;;;;;;4964692;28;20049;-86
2022/01/23 12:18:35;;;;;;;1.90;1.77;;;;;;;;;;4953947;29;20388;-85
2022/01/23 12:21:19;;;;;;;2.53;2.15;;;;;;;;;;4962279;28;20043;-85
2022/01/23 12:26:11;;;;;;;2.67;2.33;;;;;;;;;;4979788;23;21223;-67
2022/01/23 12:28:43;;;;;;;2.25;1.90;;;;;;;;;;4969973;28;20109;-65
2022/01/23 12:31:14;;;;;;;2.50;2.30;;;;;;;;;;4953649;29;20027;-67
2022/01/23 12:33:39;;;;;;;1.65;1.55;;;;;;;;;;4952804;28;20479;-68
2022/01/23 12:36:19;;;;;;;1.63;1.52;;;;;;;;;;4953151;28;20038;-67
2022/01/23 12:38:49;;;;;;;2.47;1.63;;;;;;;;;;4970976;28;20177;-68
2022/01/23 12:41:23;;;;;;;1.58;1.42;;;;;;;;;;4963695;28;20027;-66
2022/01/23 12:43:49;;;;;;;1.87;1.50;;;;;;;;;;4934567;29;20420;-67
2022/01/23 12:46:29;;;;;;;1.52;1.05;;;;;;;;;;4949936;28;20059;-67
2022/01/23 12:48:55;;;;;;;2.35;1.13;;;;;;;;;;4952299;29;20019;-68
2022/01/23 12:51:20;;;;;;;1.58;1.48;;;;;;;;;;4960583;28;20047;-67
2022/01/23 12:53:45;;;;;;;1.70;1.33;;;;;;;;;;4952911;28;20396;-67
2022/01/23 12:56:21;;;;;;;1.77;1.50;;;;;;;;;;4952836;28;20030;-67
2022/01/23 12:58:51;;;;;;;1.50;1.05;;;;;;;;;;4970514;28;20031;-66
2022/01/23 13:01:17;;;;;;;1.73;1.60;;;;;;;;;;4960630;28;20034;-67
2022/01/23 13:03:50;;;;;;;1.63;1.33;;;;;;;;;;4953106;29;20027;-68
2022/01/23 13:06:15;;;;;;;1.50;1.40;;;;;;;;;;4952887;28;20054;-68
2022/01/23 13:08:48;;;;;;;1.60;1.50;;;;;;;;;;4969926;28;20050;-68
2022/01/23 13:11:52;;;;;;;1.85;1.75;;;;;;;;;;4962789;28;20484;-67
2022/01/23 13:14:02;;;;;;;2.13;1.75;;;;;;;;;;4960109;28;20504;-68
2022/01/23 13:16:38;;;;;;;2.42;2.22;;;;;;;;;;4951349;29;20031;-67
2022/01/23 13:27:35;;;;;;;9.48;2.72;;;;;;;;;;4954912;28;20026;-68
2022/01/23 13:30:14;;;;;;;3.30;2.75;;;;;;;;;;4953202;28;20035;-68
2022/01/23 13:32:44;;;;;;;3.13;2.83;;;;;;;;;;4953364;28;20054;-66
2022/01/23 13:35:13;;;;;;;2.00;1.80;;;;;;;;;;4952529;29;20043;-66
2022/01/23 13:37:39;;;;;;;2.30;2.08;;;;;;;;;;4956827;28;20023;-66
2022/01/23 13:40:05;;;;;;;2.88;2.17;;;;;;;;;;4955923;28;20023;-67
2022/01/23 13:48:39;;;;;;;1.83;1.70;;;;;;;;;;4955630;28;20108;-66
2022/01/23 13:59:19;;;;;;;3.03;2.72;;;;;;;;;;4952311;28;20034;-67
2022/01/23 14:02:10;;;;;;;3.05;2.72;;;;;;;;;;4956387;28;20026;-67
2022/01/23 14:04:37;;;;;;;3.05;2.67;;;;;;;;;;4955798;28;20030;-67
2022/01/23 14:07:02;;;;;;;3.80;3.33;;;;;;;;;;4953265;28;20019;-68
2022/01/23 14:09:27;;;;;;;3.80;3.47;;;;;;;;;;4956774;28;20020;-68
2022/01/23 14:11:53;;;;;;;4.00;3.50;;;;;;;;;;4955152;29;20436;-68
2022/01/23 14:14:18;;;;;;;4.18;2.90;;;;;;;;;;4956376;28;20093;-68
2022/01/23 14:16:44;;;;;;;3.72;3.30;;;;;;;;;;4955559;28;20548;-66
2022/01/23 14:19:12;;;;;;;4.60;3.70;;;;;;;;;;4955787;28;20034;-69
2022/01/23 14:21:41;;;;;;;3.85;3.33;;;;;;;;;;4956033;28;20015;-67
2022/01/23 14:24:06;;;;;;;3.50;3.03;;;;;;;;;;4954542;29;20058;-68
2022/01/23 14:26:32;;;;;;;3.72;3.42;;;;;;;;;;4962986;28;20472;-67
2022/01/23 14:29:03;;;;;;;6.13;4.32;;;;;;;;;;4967924;28;20360;-66
2022/01/23 14:31:36;;;;;;;4.20;3.80;;;;;;;;;;4963100;28;20082;-67
2022/01/23 14:34:03;;;;;;;4.10;3.33;;;;;;;;;;4954983;28;20035;-67
2022/01/23 14:36:38;;;;;;;3.65;3.13;;;;;;;;;;4954854;28;20114;-66
2022/01/23 14:39:08;;;;;;;4.22;3.80;;;;;;;;;;4960658;28;20495;-67
2022/01/23 14:41:35;;;;;;;3.40;3.10;;;;;;;;;;4955511;28;20539;-66
2022/01/23 14:44:01;;;;;;;5.60;4.00;;;;;;;;;;4955609;28;20074;-67
2022/01/23 14:46:26;;;;;;;3.92;3.30;;;;;;;;;;4955207;28;20031;-67
2022/01/23 14:48:58;;;;;;;3.50;2.38;;;;;;;;;;4949393;28;20019;-67
2022/01/23 14:51:25;;;;;;;4.72;2.83;;;;;;;;;;4946831;28;20034;-67
2022/01/23 14:53:52;;;;;;;3.58;3.03;;;;;;;;;;4951167;28;20031;-67
2022/01/23 14:56:18;;;;;;;3.80;3.30;;;;;;;;;;4955242;28;20037;-67
2022/01/23 14:58:44;;;;;;;4.95;3.25;;;;;;;;;;4955219;28;20098;-67
2022/01/23 15:01:11;;;;;;;4.15;3.58;;;;;;;;;;4955196;28;20106;-67
2022/01/23 15:03:37;;;;;;;3.72;2.65;;;;;;;;;;4955066;28;20031;-67
2022/01/23 15:06:03;;;;;;;3.97;3.55;;;;;;;;;;4960612;28;20118;-64
2022/01/23 15:08:28;;;;;;;3.75;3.10;;;;;;;;;;4955047;28;20028;-68
2022/01/23 15:10:56;;;;;;;4.35;3.50;;;;;;;;;;4953960;28;20477;-67
2022/01/23 15:13:25;;;;;;;4.65;3.90;;;;;;;;;;4959066;28;20038;-67
2022/01/23 15:15:51;;;;;;;3.88;3.00;;;;;;;;;;4955377;29;20022;-67
2022/01/23 15:18:16;;;;;;;4.28;3.25;;;;;;;;;;4954396;29;20175;-64
2022/01/23 15:20:42;;;;;;;5.00;3.78;;;;;;;;;;4949161;28;20114;-68
2022/01/23 15:23:07;;;;;;;5.53;3.42;;;;;;;;;;4966710;28;20034;-67
2022/01/23 15:25:33;;;;;;;4.95;4.45;;;;;;;;;;4957686;28;20404;-68
2022/01/23 15:27:58;;;;;;;5.65;3.90;;;;;;;;;;4954970;29;20033;-67
2022/01/23 15:30:26;;;;;;;5.80;4.18;;;;;;;;;;4971836;28;20058;-67
2022/01/23 15:32:52;;;;;;;5.85;4.82;;;;;;;;;;4953542;29;20126;-66
2022/01/23 15:35:18;;;;;;;5.25;4.75;;;;;;;;;;4949839;28;20164;-66
2022/01/23 15:37:43;;;;;;;7.00;4.32;;;;;;;;;;4952219;29;20029;-68
2022/01/23 15:40:10;;;;;;;5.95;4.47;;;;;;;;;;4954533;28;20118;-68
2022/01/23 15:42:36;;;;;;;3.60;2.97;;;;;;;;;;4961111;28;20029;-68
2022/01/23 15:45:01;;;;;;;5.25;4.53;;;;;;;;;;4962851;28;20023;-68
2022/01/23 15:47:26;;;;;;;4.38;3.97;;;;;;;;;;4953249;29;20031;-66
2022/01/23 15:49:51;;;;;;;5.50;4.03;;;;;;;;;;4951257;28;20120;-68
2022/01/23 15:52:16;;;;;;;5.38;4.65;;;;;;;;;;4956372;28;20506;-67
2022/01/23 15:54:42;;;;;;;5.85;5.05;;;;;;;;;;4965053;28;20034;-68
2022/01/23 15:57:08;;;;;;;5.95;4.80;;;;;;;;;;4952486;28;20551;-67
2022/01/23 15:59:35;;;;;;;5.85;4.68;;;;;;;;;;4952561;28;20031;-64
2022/01/23 16:02:00;;;;;;;4.47;4.07;;;;;;;;;;4953284;28;20024;-67
2022/01/23 16:04:26;;;;;;;5.47;4.07;;;;;;;;;;4954444;28;20031;-67
2022/01/23 16:06:51;;;;;;;7.68;4.70;;;;;;;;;;4952810;28;20051;-68
2022/01/23 16:09:16;;;;;;;5.40;4.68;;;;;;;;;;4937029;29;20507;-67
2022/01/23 16:11:42;;;;;;;6.28;4.82;;;;;;;;;;4953617;28;20531;-68
2022/01/23 16:14:07;;;;;;;5.70;4.65;;;;;;;;;;4953274;28;20035;-67
2022/01/23 16:16:33;;;;;;;7.50;5.20;;;;;;;;;;4956926;28;20399;-68
2022/01/23 16:18:58;;;;;;;7.13;5.18;;;;;;;;;;4959407;28;20483;-66
2022/01/23 16:21:24;;;;;;;6.80;5.32;;;;;;;;;;4957494;28;20395;-67
2022/01/23 16:23:49;;;;;;;8.50;5.60;;;;;;;;;;4963535;28;20026;-66
2022/01/23 16:26:17;;;;;;;8.00;5.20;;;;;;;;;;4959952;28;20023;-66
2022/01/23 16:28:42;;;;;;;5.65;5.00;;;;;;;;;;4958750;28;20029;-67
2022/01/23 16:31:07;;;;;;;6.30;5.40;;;;;;;;;;4959090;28;20391;-66
2022/01/23 16:33:33;;;;;;;9.10;6.30;;;;;;;;;;4953129;28;20081;-68
2022/01/23 16:35:58;;;;;;;7.18;5.72;;;;;;;;;;4945208;28;20035;-67
2022/01/23 16:38:23;;;;;;;8.27;6.20;;;;;;;;;;4954987;28;20035;-68
2022/01/23 16:40:50;;;;;;;6.50;5.28;;;;;;;;;;4964261;28;20023;-67
2022/01/23 16:43:16;;;;;;;8.02;6.75;;;;;;;;;;4953222;28;20035;-66
2022/01/23 16:45:42;;;;;;;8.68;6.45;;;;;;;;;;4953710;29;20042;-67
2022/01/23 16:48:07;;;;;;;8.88;5.75;;;;;;;;;;4953396;28;20046;-66
2022/01/23 16:50:33;;;;;;;8.10;6.18;;;;;;;;;;4940730;28;20036;-68
2022/01/23 16:52:58;;;;;;;7.22;5.80;;;;;;;;;;4955299;28;20035;-67
2022/01/23 16:55:24;;;;;;;8.57;7.00;;;;;;;;;;4948027;28;20673;-67
2022/01/23 16:57:49;;;;;;;10.98;7.00;;;;;;;;;;4947395;28;20481;-66
2022/01/23 17:00:15;;;;;;;10.15;8.23;;;;;;;;;;4949791;28;20472;-67
2022/01/23 17:02:40;;;;;;;10.75;6.97;;;;;;;;;;4950480;28;20050;-67
2022/01/23 17:05:05;;;;;;;10.82;7.88;;;;;;;;;;4945902;28;20030;-65
2022/01/23 17:07:31;;;;;;;9.93;7.68;;;;;;;;;;4949207;28;20019;-67
2022/01/23 17:09:56;;;;;;;9.63;7.45;;;;;;;;;;4953241;28;20031;-66
2022/01/23 17:12:21;;;;;;;8.43;6.68;;;;;;;;;;4953328;28;20357;-67
2022/01/23 17:14:46;;;;;;;9.38;6.65;;;;;;;;;;4956294;28;20381;-67
2022/01/23 17:17:12;;;;;;;9.00;7.10;;;;;;;;;;4956740;28;20029;-67
2022/01/23 17:19:37;;;;;;;9.05;7.03;;;;;;;;;;4951308;28;20030;-67
2022/01/23 17:22:02;;;;;;;9.73;7.28;;;;;;;;;;4939798;29;20547;-67
2022/01/23 17:24:28;;;;;;;11.40;7.72;;;;;;;;;;4954118;28;20493;-67
2022/01/23 17:26:53;;;;;;;11.77;8.10;;;;;;;;;;4957366;28;20086;-64
2022/01/23 17:29:19;;;;;;;15.00;10.43;;;;;;;;;;4954470;28;20023;-67
2022/01/23 17:31:47;;;;;;;15.57;9.40;;;;;;;;;;4963275;28;20027;-66
2022/01/23 17:34:12;;;;;;;13.95;10.18;;;;;;;;;;4956731;29;20038;-68
2022/01/23 17:36:38;;;;;;;13.18;10.07;;;;;;;;;;4957999;28;20023;-66
2022/01/23 17:39:03;;;;;;;10.60;9.02;;;;;;;;;;4954658;29;20090;-65
2022/01/23 17:41:28;;;;;;;18.15;12.13;;;;;;;;;;4956841;29;20448;-69
2022/01/23 17:43:54;;;;;;;14.57;11.75;;;;;;;;;;4956525;28;20035;-68
2022/01/23 17:46:24;;;;;;;16.15;12.75;;;;;;;;;;4960463;28;20121;-67
2022/01/23 17:49:02;;;;;;;16.33;12.05;;;;;;;;;;4965314;28;20042;-67
2022/01/23 17:51:29;;;;;;;16.15;11.90;;;;;;;;;;4949477;28;20035;-66
2022/01/23 17:53:55;;;;;;;16.65;12.68;;;;;;;;;;4955865;28;20037;-67
2022/01/23 17:56:21;;;;;;;17.17;12.57;;;;;;;;;;4956265;28;20102;-67
2022/01/23 17:58:46;;;;;;;13.80;10.77;;;;;;;;;;4955311;28;20535;-68
2022/01/23 18:01:12;;;;;;;14.20;11.35;;;;;;;;;;4956375;28;20026;-67
2022/01/23 18:03:39;;;;;;;17.25;11.68;;;;;;;;;;4953121;28;20025;-67
2022/01/23 18:06:09;;;;;;;16.40;11.80;;;;;;;;;;4954925;28;20047;-67
2022/01/23 18:08:34;;;;;;;13.82;10.85;;;;;;;;;;4954596;29;20069;-67
2022/01/23 18:10:59;;;;;;;17.75;12.18;;;;;;;;;;4955336;29;20023;-67
2022/01/23 18:13:25;;;;;;;14.98;11.27;;;;;;;;;;4954414;29;20162;-68
2022/01/23 18:15:51;;;;;;;13.18;11.00;;;;;;;;;;4966628;28;20078;-67
2022/01/23 18:18:16;;;;;;;14.45;10.43;;;;;;;;;;4954877;28;20023;-67
2022/01/23 18:20:41;;;;;;;14.63;10.95;;;;;;;;;;4925845;29;20515;-67
2022/01/23 18:23:07;;;;;;;16.50;12.25;;;;;;;;;;4944177;28;20023;-67
2022/01/23 18:25:33;;;;;;;15.40;10.45;;;;;;;;;;4936922;29;20087;-68
2022/01/23 18:27:59;;;;;;;12.55;9.52;;;;;;;;;;4945560;28;20023;-66
2022/01/23 18:30:25;;;;;;;11.20;9.07;;;;;;;;;;4954464;28;20035;-67
2022/01/23 18:32:51;;;;;;;13.35;9.52;;;;;;;;;;4958513;28;20031;-67
2022/01/23 18:35:17;;;;;;;12.98;9.90;;;;;;;;;;4956753;28;20034;-68
2022/01/23 18:37:42;;;;;;;12.80;8.85;;;;;;;;;;4954582;28;20027;-67
2022/01/23 18:40:09;;;;;;;11.55;9.13;;;;;;;;;;4954908;28;20372;-68
2022/01/23 18:42:34;;;;;;;14.20;9.70;;;;;;;;;;4969249;28;20033;-68
2022/01/23 18:44:59;;;;;;;12.18;9.50;;;;;;;;;;4954748;28;20023;-67
2022/01/23 18:47:25;;;;;;;11.13;8.82;;;;;;;;;;4934371;29;20513;-68
2022/01/23 18:49:50;;;;;;;12.85;9.35;;;;;;;;;;4944547;28;20629;-67